Time;durP1;ratioP1;P1;durP2;ratioP2;P2;SDS_P1;SDS_P2;PMS_P1;PMS_P2;Temp;Humidity;BMP_temperature;BMP_pressure;BME280_temperature;BME280_humidity;BME280_pressure;Samples;Min_cycle;Max_cycle;Signal;HPM_P1;HPM_P2
2023/01/13 00:00:49;;;;;;;15.00;10.70;;;;;;;4.23;100.00;98770.82;109589;1250;61236;-81
2023/01/13 00:03:22;;;;;;;14.20;11.30;;;;;;;4.22;100.00;98767.33;109228;1251;62798;-82
2023/01/13 00:05:50;;;;;;;15.80;11.60;;;;;;;4.21;100.00;98761.25;109709;1251;58211;-82
2023/01/13 00:08:17;;;;;;;13.90;12.40;;;;;;;4.17;100.00;98760.88;109730;1250;58130;-82
2023/01/13 00:10:47;;;;;;;12.10;10.80;;;;;;;4.13;100.00;98758.41;109730;1249;66297;-83
2023/01/13 00:13:13;;;;;;;11.00;9.60;;;;;;;4.08;100.00;98754.75;109684;1251;61060;-83
2023/01/13 00:15:40;;;;;;;9.50;8.30;;;;;;;4.05;100.00;98758.07;109738;1250;65027;-82
2023/01/13 00:18:07;;;;;;;8.50;6.90;;;;;;;4.01;100.00;98754.56;109734;1250;58124;-83
2023/01/13 00:20:33;;;;;;;7.50;6.50;;;;;;;3.97;100.00;98755.27;109631;1251;131815;-82
2023/01/13 00:23:00;;;;;;;8.60;5.70;;;;;;;3.93;100.00;98755.60;109716;1251;66646;-83
2023/01/13 00:25:27;;;;;;;6.90;5.20;;;;;;;3.92;100.00;98751.98;109455;1251;61102;-81
2023/01/13 00:27:54;;;;;;;7.40;5.30;;;;;;;3.89;100.00;98750.68;109696;1251;64832;-83
2023/01/13 00:30:20;;;;;;;6.00;5.10;;;;;;;3.86;100.00;98749.95;109727;1249;58178;-82
2023/01/13 00:32:47;;;;;;;7.30;5.30;;;;;;;3.85;100.00;98746.45;109731;1251;58181;-82
2023/01/13 00:35:13;;;;;;;9.30;5.40;;;;;;;3.88;100.00;98750.20;109771;1251;65941;-80
2023/01/13 00:37:40;;;;;;;7.60;5.40;;;;;;;3.93;100.00;98752.27;109830;1251;60132;-84
2023/01/13 00:40:07;;;;;;;6.30;5.00;;;;;;;4.00;100.00;98756.53;109828;1251;64719;-82
2023/01/13 00:45:19;;;;;;;6.10;5.10;;;;;;;4.13;100.00;98752.98;109679;1251;58248;-83
2023/01/13 00:47:46;;;;;;;6.20;5.00;;;;;;;4.18;100.00;98754.35;109703;1251;65915;-81
2023/01/13 00:50:12;;;;;;;7.30;4.80;;;;;;;4.23;100.00;98753.40;109742;1251;59760;-82
2023/01/13 00:52:39;;;;;;;5.90;5.10;;;;;;;4.27;100.00;98752.36;109728;1251;64084;-82
2023/01/13 00:55:06;;;;;;;6.80;5.50;;;;;;;4.30;100.00;98756.10;109704;1251;58338;-81
2023/01/13 00:57:33;;;;;;;6.80;5.50;;;;;;;4.33;100.00;98754.52;109712;1251;58357;-82
2023/01/13 00:59:59;;;;;;;7.80;6.10;;;;;;;4.35;100.00;98755.49;109766;1251;65959;-81
2023/01/13 01:02:26;;;;;;;7.00;5.60;;;;;;;4.36;100.00;98750.19;109731;1251;59836;-82
2023/01/13 01:04:53;;;;;;;6.80;5.50;;;;;;;4.35;100.00;98746.88;109654;1251;73396;-82
2023/01/13 01:07:21;;;;;;;8.30;5.60;;;;;;;4.32;100.00;98744.91;109650;1249;58349;-83
2023/01/13 01:09:48;;;;;;;7.60;5.60;;;;;;;4.30;100.00;98739.53;109715;1251;58201;-82
2023/01/13 01:12:15;;;;;;;6.50;5.30;;;;;;;4.30;100.00;98737.45;109722;1251;65281;-82
2023/01/13 01:14:41;;;;;;;6.10;4.60;;;;;;;4.28;100.00;98739.10;109745;1250;60674;-82
2023/01/13 01:17:08;;;;;;;7.10;4.70;;;;;;;4.29;100.00;98736.23;109678;1251;64678;-82
2023/01/13 01:19:37;;;;;;;5.70;4.70;;;;;;;4.31;100.00;98736.34;109681;1249;58179;-82
2023/01/13 01:22:04;;;;;;;5.70;4.50;;;;;;;4.33;100.00;98733.81;109690;1249;58194;-82
2023/01/13 01:24:30;;;;;;;6.20;4.60;;;;;;;4.30;100.00;98734.24;109713;1251;65087;-82
2023/01/13 01:26:57;;;;;;;7.70;5.10;;;;;;;4.28;100.00;98732.61;109711;1251;59836;-82
2023/01/13 01:29:24;;;;;;;7.90;5.80;;;;;;;4.24;100.00;98727.84;109464;1250;65321;-82
2023/01/13 01:31:50;;;;;;;6.90;6.20;;;;;;;4.21;100.00;98726.08;109720;1249;58435;-83
2023/01/13 01:34:17;;;;;;;7.10;5.80;;;;;;;4.18;100.00;98723.74;109685;1251;58184;-83
2023/01/13 01:36:43;;;;;;;6.80;5.70;;;;;;;4.15;100.00;98717.38;109400;1250;64007;-83
2023/01/13 01:39:10;;;;;;;7.00;6.20;;;;;;;4.11;100.00;98713.52;109702;1250;61018;-81
2023/01/13 01:41:37;;;;;;;10.00;6.50;;;;;;;4.07;100.00;98707.35;109724;1251;63800;-80
2023/01/13 01:44:41;;;;;;;9.50;7.40;;;;;;;4.04;100.00;98703.64;109657;1251;58628;-81
2023/01/13 01:47:13;;;;;;;9.10;8.20;;;;;;;3.98;100.00;98694.59;109717;1249;58069;-82
2023/01/13 01:49:41;;;;;;;9.80;8.80;;;;;;;3.92;100.00;98691.16;109718;1250;65435;-82
2023/01/13 01:52:16;;;;;;;7.40;6.70;;;;;;;3.86;100.00;98690.71;109742;1249;59796;-82
2023/01/13 01:54:53;;;;;;;5.70;4.90;;;;;;;3.79;100.00;98686.98;109732;1249;64088;-82
2023/01/13 01:57:29;;;;;;;4.90;4.40;;;;;;;3.72;100.00;98685.00;109612;1251;58258;-82
2023/01/13 01:59:59;;;;;;;7.30;6.60;;;;;;;3.66;100.00;98681.92;109677;1249;58146;-82
2023/01/13 02:02:28;;;;;;;8.10;6.30;;;;;;;3.65;100.00;98679.50;109673;1251;64863;-82
2023/01/13 02:04:55;;;;;;;6.50;5.80;;;;;;;3.70;100.00;98678.25;109579;1251;59982;-82
2023/01/13 02:07:27;;;;;;;5.60;5.10;;;;;;;3.76;100.00;98679.25;109594;1251;64896;-83
2023/01/13 02:09:56;;;;;;;6.20;5.10;;;;;;;3.80;100.00;98677.28;109673;1250;58486;-81
2023/01/13 02:12:31;;;;;;;6.20;5.30;;;;;;;3.86;100.00;98675.80;109531;1250;58065;-81
2023/01/13 02:15:21;;;;;;;7.20;5.90;;;;;;;3.91;100.00;98676.27;109528;1250;66390;-83
2023/01/13 02:18:00;;;;;;;6.20;5.30;;;;;;;3.98;100.00;98674.21;109755;1250;60292;-82
2023/01/13 02:20:52;;;;;;;6.90;5.40;;;;;;;4.03;100.00;98674.48;109718;1250;64780;-83
2023/01/13 02:26:47;;;;;;;7.50;4.40;;;;;;;4.18;100.00;98662.88;109717;1250;58128;-82
2023/01/13 02:32:45;;;;;;;4.70;4.30;;;;;;;4.32;100.00;98658.21;109681;1250;60746;-82
2023/01/13 02:35:19;;;;;;;5.70;5.10;;;;;;;4.42;100.00;98655.80;109708;1251;63986;-83
2023/01/13 02:37:48;;;;;;;5.20;4.50;;;;;;;4.52;100.00;98652.34;109716;1251;58171;-82
2023/01/13 02:40:37;;;;;;;5.10;4.10;;;;;;;4.61;100.00;98649.61;109671;1249;58300;-83
2023/01/13 02:46:31;;;;;;;4.60;4.10;;;;;;;4.80;100.00;98645.36;109760;1250;60002;-82
2023/01/13 02:49:04;;;;;;;5.30;4.50;;;;;;;4.85;100.00;98638.80;108956;1259;65037;-82
2023/01/13 02:51:32;;;;;;;8.10;6.10;;;;;;;4.85;100.00;98629.27;108948;1259;58295;-82
2023/01/13 02:54:11;;;;;;;5.20;4.70;;;;;;;4.84;100.00;98628.23;108814;1260;58225;-82
2023/01/13 02:56:42;;;;;;;5.30;4.40;;;;;;;4.89;100.00;98626.27;108814;1260;65593;-81
2023/01/13 02:59:11;;;;;;;6.90;4.40;;;;;;;4.93;100.00;98624.96;108925;1259;59855;-82
2023/01/13 03:01:38;;;;;;;7.70;4.60;;;;;;;4.99;100.00;98624.20;108911;1259;63710;-82
2023/01/13 03:04:12;;;;;;;4.90;4.40;;;;;;;5.03;100.00;98628.70;108998;1259;58181;-83
2023/01/13 03:07:26;;;;;;;6.50;5.00;;;;;;;5.07;100.00;98629.02;108844;1262;58179;-82
2023/01/13 03:10:19;;;;;;;5.60;4.10;;;;;;;5.14;100.00;98629.77;108340;1269;63714;-82
2023/01/13 03:13:43;;;;;;;4.40;4.00;;;;;;;5.21;100.00;98631.52;107809;1274;60784;-82
2023/01/13 03:16:09;;;;;;;5.40;4.70;;;;;;;5.30;100.00;98627.90;107057;1282;64150;-83
2023/01/13 03:19:01;;;;;;;4.40;4.00;;;;;;;5.36;100.00;98627.59;107120;1282;58652;-82
2023/01/13 03:21:36;;;;;;;4.50;3.70;;;;;;;5.43;100.00;98623.17;107233;1283;58195;-83
2023/01/13 03:24:12;;;;;;;4.60;3.90;;;;;;;5.50;100.00;98619.62;107417;1277;66147;-83
2023/01/13 03:27:01;;;;;;;4.90;3.60;;;;;;;5.57;100.00;98618.74;107694;1276;59721;-82
2023/01/13 03:29:33;;;;;;;5.20;4.10;;;;;;;5.62;100.00;98616.35;107612;1275;65029;-81
2023/01/13 03:32:18;;;;;;;4.10;3.70;;;;;;;5.65;100.00;98614.92;107606;1275;58671;-82
2023/01/13 03:34:52;;;;;;;6.50;4.80;;;;;;;5.69;100.00;98611.02;107661;1276;58603;-82
2023/01/13 03:37:25;;;;;;;5.40;4.20;;;;;;;5.74;100.00;98604.08;107747;1272;66199;-83
2023/01/13 03:40:00;;;;;;;5.00;4.20;;;;;;;5.78;100.00;98606.50;108071;1267;60879;-82
2023/01/13 03:42:32;;;;;;;5.30;4.10;;;;;;;5.81;100.00;98607.73;108520;1267;65203;-83
2023/01/13 03:45:04;;;;;;;5.70;4.10;;;;;;;5.83;100.00;98610.30;108530;1266;58299;-82
2023/01/13 03:47:53;;;;;;;4.80;3.80;;;;;;;5.84;100.00;98613.92;108843;1259;58273;-82
2023/01/13 03:50:37;;;;;;;5.50;5.00;;;;;;;5.85;100.00;98619.35;109409;1249;64957;-82
2023/01/13 03:53:12;;;;;;;5.00;4.10;;;;;;;5.84;100.00;98618.85;109713;1250;60110;-82
2023/01/13 03:55:46;;;;;;;5.50;5.00;;;;;;;5.84;100.00;98620.08;109680;1250;64765;-82
2023/01/13 03:58:24;;;;;;;5.10;4.60;;;;;;;5.84;100.00;98618.71;109702;1249;58197;-82
2023/01/13 04:01:04;;;;;;;6.70;4.40;;;;;;;5.82;100.00;98619.52;109780;1250;58212;-82
2023/01/13 04:03:39;;;;;;;7.80;5.10;;;;;;;5.80;100.00;98613.27;109767;1249;66340;-83
2023/01/13 04:06:43;;;;;;;6.60;4.90;;;;;;;5.76;100.00;98614.53;109744;1249;59755;-81
2023/01/13 04:09:48;;;;;;;6.90;6.00;;;;;;;5.72;100.00;98614.20;108954;1259;63759;-82
2023/01/13 04:15:16;;;;;;;8.40;6.80;;;;;;;5.68;100.00;98612.12;108975;1259;58248;-82
2023/01/13 04:17:43;;;;;;;10.50;7.90;;;;;;;5.69;100.00;98614.93;108715;1259;66025;-82
2023/01/13 04:20:10;;;;;;;9.90;6.80;;;;;;;5.69;100.00;98613.66;108781;1259;59979;-83
2023/01/13 04:22:36;;;;;;;8.10;6.90;;;;;;;5.72;100.00;98614.94;108928;1258;64725;-83
2023/01/13 04:25:04;;;;;;;8.40;6.60;;;;;;;5.72;100.00;98615.60;108954;1259;58518;-82
2023/01/13 04:27:30;;;;;;;10.40;7.30;;;;;;;5.73;100.00;98619.95;108983;1259;59429;-82
2023/01/13 04:29:57;;;;;;;8.00;6.70;;;;;;;5.73;100.00;98617.67;108948;1259;64843;-83
2023/01/13 04:32:23;;;;;;;8.40;7.50;;;;;;;5.76;100.00;98614.73;108978;1259;60928;-83
2023/01/13 04:34:50;;;;;;;8.90;7.20;;;;;;;5.76;100.00;98613.34;108972;1259;64010;-82
2023/01/13 04:37:17;;;;;;;7.80;6.70;;;;;;;5.74;100.00;98612.36;108947;1259;58188;-83
2023/01/13 04:39:45;;;;;;;8.20;7.40;;;;;;;5.74;100.00;98610.94;108960;1259;58269;-83
2023/01/13 04:42:11;;;;;;;10.60;8.00;;;;;;;5.74;100.00;98613.06;108994;1259;66203;-83
2023/01/13 04:44:38;;;;;;;9.70;8.60;;;;;;;5.74;100.00;98615.53;109279;1249;59806;-81
2023/01/13 04:47:05;;;;;;;10.00;9.00;;;;;;;5.73;100.00;98614.33;109722;1249;63728;-82
2023/01/13 04:49:32;;;;;;;10.10;9.00;;;;;;;5.72;100.00;98615.42;109653;1249;58287;-82
2023/01/13 04:51:58;;;;;;;9.50;8.00;;;;;;;5.73;100.00;98617.69;109740;1249;58034;-83
2023/01/13 04:54:25;;;;;;;8.60;7.60;;;;;;;5.74;100.00;98618.17;109421;1251;66251;-82
2023/01/13 04:56:51;;;;;;;9.70;8.10;;;;;;;5.77;100.00;98620.48;109698;1250;60106;-82
2023/01/13 04:59:18;;;;;;;7.20;6.50;;;;;;;5.80;100.00;98615.04;109722;1250;65008;-83
2023/01/13 05:01:45;;;;;;;8.60;6.30;;;;;;;5.82;100.00;98612.63;109738;1250;58217;-83
2023/01/13 05:04:14;;;;;;;6.70;5.90;;;;;;;5.84;100.00;98605.98;109791;1250;58167;-83
2023/01/13 05:06:41;;;;;;;6.60;5.50;;;;;;;5.86;100.00;98604.87;109739;1249;65958;-82
2023/01/13 05:09:08;;;;;;;7.80;5.70;;;;;;;5.87;100.00;98604.94;109410;1250;59810;-83
2023/01/13 05:17:09;;;;;;;5.60;5.10;;;;;;;6.00;100.00;98610.48;109727;1250;58206;-82
2023/01/13 05:19:39;;;;;;;7.30;5.50;;;;;;;6.03;100.00;98605.88;109551;1249;65884;-83
2023/01/13 05:27:36;;;;;;;7.10;4.30;;;;;;;6.14;100.00;98609.70;109467;1249;58183;-83
2023/01/13 05:30:04;;;;;;;5.60;4.30;;;;;;;6.17;100.00;98612.02;109716;1250;58148;-82
2023/01/13 05:32:31;;;;;;;5.70;4.50;;;;;;;6.18;100.00;98616.72;109371;1250;66137;-82
2023/01/13 05:34:57;;;;;;;7.10;4.90;;;;;;;6.19;100.00;98617.56;109695;1249;61126;-82
2023/01/13 05:37:26;;;;;;;6.10;5.50;;;;;;;6.20;100.00;98616.77;109673;1249;65061;-83
2023/01/13 05:45:23;;;;;;;6.60;4.70;;;;;;;6.20;100.00;98618.52;109742;1250;66438;-84
2023/01/13 05:47:50;;;;;;;6.00;4.60;;;;;;;6.22;100.00;98619.66;109425;1251;61072;-84
2023/01/13 05:50:17;;;;;;;6.30;4.70;;;;;;;6.25;100.00;98617.58;109704;1250;64706;-81
2023/01/13 05:52:43;;;;;;;7.20;4.80;;;;;;;6.29;100.00;98611.68;109716;1249;58225;-82
2023/01/13 05:55:10;;;;;;;7.60;4.90;;;;;;;6.33;100.00;98612.33;109738;1249;58197;-82
2023/01/13 05:57:37;;;;;;;5.60;4.30;;;;;;;6.37;100.00;98608.78;109401;1250;65245;-81
2023/01/13 06:00:04;;;;;;;7.10;4.90;;;;;;;6.41;100.00;98608.23;109724;1249;60786;-82
2023/01/13 06:02:31;;;;;;;7.20;5.20;;;;;;;6.44;100.00;98606.64;109588;1249;64352;-82
2023/01/13 06:04:58;;;;;;;6.70;5.00;;;;;;;6.47;100.00;98605.73;109405;1249;58260;-82
2023/01/13 06:07:25;;;;;;;6.90;5.70;;;;;;;6.51;100.00;98607.63;109720;1249;58228;-82
2023/01/13 06:09:51;;;;;;;5.50;4.80;;;;;;;6.54;100.00;98608.69;109722;1250;66298;-82
2023/01/13 06:12:18;;;;;;;5.80;4.50;;;;;;;6.56;100.00;98606.27;109701;1250;60713;-82
2023/01/13 06:14:45;;;;;;;6.40;4.30;;;;;;;6.61;100.00;98609.02;109701;1249;65153;-82
2023/01/13 06:17:13;;;;;;;6.70;4.60;;;;;;;6.65;100.00;98612.86;109688;1250;58265;-82
2023/01/13 06:19:41;;;;;;;5.70;4.70;;;;;;;6.68;100.00;98615.16;109698;1250;58569;-82
2023/01/13 06:22:13;;;;;;;6.70;4.80;;;;;;;6.71;100.00;98613.92;109726;1249;65929;-82
2023/01/13 06:24:40;;;;;;;7.10;5.80;;;;;;;6.72;100.00;98615.08;109708;1250;59723;-82
2023/01/13 06:27:08;;;;;;;6.60;5.00;;;;;;;6.73;100.00;98618.20;109707;1250;63796;-83
2023/01/13 06:29:34;;;;;;;6.10;5.00;;;;;;;6.76;100.00;98620.17;109549;1249;58167;-82
2023/01/13 06:32:06;;;;;;;6.70;4.70;;;;;;;6.78;100.00;98624.98;109726;1249;58182;-82
2023/01/13 06:34:37;;;;;;;5.90;4.60;;;;;;;6.80;100.00;98623.45;109704;1249;64854;-81
2023/01/13 06:37:04;;;;;;;5.20;4.10;;;;;;;6.81;100.00;98622.48;109739;1250;59774;-81
2023/01/13 06:39:31;;;;;;;5.20;4.60;;;;;;;6.82;100.00;98625.13;109463;1249;63782;-82
2023/01/13 06:44:44;;;;;;;6.20;5.10;;;;;;;6.84;100.00;98621.46;109760;1249;58032;-83
2023/01/13 06:47:11;;;;;;;6.40;5.10;;;;;;;6.86;100.00;98625.08;109468;1250;65582;-83
2023/01/13 06:49:37;;;;;;;7.40;5.00;;;;;;;6.88;100.00;98627.46;109685;1251;60755;-82
2023/01/13 06:52:04;;;;;;;5.00;4.50;;;;;;;6.90;100.00;98629.61;109669;1249;64729;-81
2023/01/13 06:54:30;;;;;;;8.10;5.40;;;;;;;6.93;100.00;98632.27;109684;1250;58185;-82
2023/01/13 06:56:57;;;;;;;8.10;5.70;;;;;;;6.95;100.00;98625.44;109690;1250;58160;-82
2023/01/13 06:59:24;;;;;;;10.30;6.40;;;;;;;6.98;100.00;98624.74;109719;1250;65229;-82
2023/01/13 07:01:51;;;;;;;8.30;6.10;;;;;;;7.01;100.00;98619.62;109702;1250;60060;-83
2023/01/13 07:04:18;;;;;;;8.80;5.80;;;;;;;7.03;100.00;98620.90;109520;1249;63808;-81
2023/01/13 07:06:45;;;;;;;7.80;5.90;;;;;;;7.04;100.00;98619.42;109705;1250;58579;-83
2023/01/13 07:09:12;;;;;;;7.30;6.20;;;;;;;7.06;100.00;98618.81;109733;1250;58246;-81
2023/01/13 07:11:38;;;;;;;6.10;5.20;;;;;;;7.07;100.00;98616.61;109704;1250;66010;-83
2023/01/13 07:16:51;;;;;;;7.20;5.40;;;;;;;7.11;100.00;98614.98;109745;1249;64723;-82
2023/01/13 07:19:22;;;;;;;6.60;5.00;;;;;;;7.12;100.00;98611.39;109696;1249;58097;-82
2023/01/13 07:21:52;;;;;;;9.60;5.70;;;;;;;7.13;100.00;98613.43;109748;1249;59106;-81
2023/01/13 07:24:19;;;;;;;5.90;5.10;;;;;;;7.13;100.00;98612.73;109590;1253;66323;-81
2023/01/13 07:26:45;;;;;;;6.00;4.50;;;;;;;7.14;100.00;98607.54;109782;1250;60769;-84
2023/01/13 07:29:12;;;;;;;11.90;4.50;;;;;;;7.15;100.00;98612.42;109706;1249;64712;-82
2023/01/13 07:31:39;;;;;;;5.90;4.70;;;;;;;7.16;100.00;98617.13;109733;1249;58228;-81
2023/01/13 07:34:06;;;;;;;9.00;4.50;;;;;;;7.19;100.00;98621.57;109749;1249;58176;-82
2023/01/13 07:36:33;;;;;;;10.50;6.40;;;;;;;7.24;100.00;98622.14;109748;1250;66343;-83
2023/01/13 07:38:59;;;;;;;6.70;4.60;;;;;;;7.29;100.00;98623.08;109753;1249;60201;-83
2023/01/13 07:44:11;;;;;;;4.60;4.10;;;;;;;7.36;100.00;98616.66;109723;1249;58197;-82
2023/01/13 07:46:39;;;;;;;7.60;4.20;;;;;;;7.41;100.00;98618.48;109738;1249;58370;-83
2023/01/13 07:49:06;;;;;;;5.90;4.50;;;;;;;7.45;100.00;98616.29;109712;1249;65175;-80
2023/01/13 07:51:37;;;;;;;8.50;5.00;;;;;;;7.50;100.00;98617.95;109742;1249;61106;-81
2023/01/13 07:54:05;;;;;;;7.20;4.80;;;;;;;7.54;100.00;98613.47;109163;1255;64768;-83
2023/01/13 07:56:32;;;;;;;8.10;5.30;;;;;;;7.58;100.00;98617.27;109094;1256;58446;-83
2023/01/13 07:58:59;;;;;;;7.10;5.40;;;;;;;7.62;100.00;98621.77;109184;1256;58202;-83
2023/01/13 08:01:27;;;;;;;7.60;5.40;;;;;;;7.66;100.00;98623.51;109055;1256;66394;-82
2023/01/13 08:03:55;;;;;;;8.70;5.30;;;;;;;7.71;100.00;98620.55;109205;1256;61357;-82
2023/01/13 08:06:22;;;;;;;6.00;5.00;;;;;;;7.77;100.00;98619.48;109075;1256;64134;-82
2023/01/13 08:08:49;;;;;;;7.10;4.60;;;;;;;7.82;100.00;98613.34;109165;1256;58505;-83
2023/01/13 08:11:16;;;;;;;5.00;4.20;;;;;;;7.87;100.00;98609.98;109166;1256;58145;-83
2023/01/13 08:13:42;;;;;;;5.40;4.60;;;;;;;7.94;100.00;98609.77;109139;1256;64950;-82
2023/01/13 08:16:12;;;;;;;6.50;3.80;;;;;;;8.01;100.00;98609.48;109234;1256;59726;-83
2023/01/13 08:18:40;;;;;;;7.30;4.20;;;;;;;8.10;100.00;98609.64;109114;1256;65179;-82
2023/01/13 08:21:10;;;;;;;5.70;4.50;;;;;;;8.19;100.00;98610.11;109170;1256;58269;-82
2023/01/13 08:23:36;;;;;;;5.00;4.50;;;;;;;8.29;100.00;98613.59;109158;1256;58212;-83
2023/01/13 08:26:06;;;;;;;6.30;5.20;;;;;;;8.37;100.00;98612.16;109558;1251;63670;-81
2023/01/13 08:28:32;;;;;;;6.00;4.10;;;;;;;8.45;100.00;98610.98;109615;1250;59744;-83
2023/01/13 08:31:04;;;;;;;6.60;3.80;;;;;;;8.54;100.00;98611.63;109583;1251;64737;-83
2023/01/13 08:33:30;;;;;;;8.20;4.60;;;;;;;8.63;100.00;98611.73;109584;1251;58367;-81
2023/01/13 08:35:58;;;;;;;5.00;4.20;;;;;;;8.71;100.00;98607.52;109306;1251;58415;-83
2023/01/13 08:38:24;;;;;;;6.80;4.40;;;;;;;8.76;100.00;98609.65;109566;1253;65933;-82
2023/01/13 08:40:51;;;;;;;7.20;4.40;;;;;;;8.82;100.00;98610.02;109578;1251;59702;-85
2023/01/13 08:43:18;;;;;;;9.30;4.30;;;;;;;8.86;100.00;98613.27;109564;1251;64072;-82
2023/01/13 08:45:44;;;;;;;7.40;4.60;;;;;;;8.90;100.00;98614.78;109581;1251;58204;-83
2023/01/13 08:48:11;;;;;;;5.90;4.50;;;;;;;8.93;100.00;98612.48;109577;1251;58206;-82
2023/01/13 08:50:38;;;;;;;8.80;4.10;;;;;;;8.95;100.00;98613.57;109574;1251;66434;-82
2023/01/13 08:53:04;;;;;;;8.10;4.10;;;;;;;8.98;100.00;98613.56;109344;1251;58726;-82
2023/01/13 08:55:31;;;;;;;6.10;4.70;;;;;;;9.01;100.00;98613.48;109574;1251;64767;-84
2023/01/13 08:57:58;;;;;;;7.60;4.50;;;;;;;9.05;100.00;98621.59;109589;1251;58069;-83
2023/01/13 09:00:24;;;;;;;5.90;4.20;;;;;;;9.09;100.00;98624.52;109623;1251;58461;-83
2023/01/13 09:02:51;;;;;;;5.90;3.90;;;;;;;9.11;100.00;98625.27;109279;1251;66491;-84
2023/01/13 09:05:19;;;;;;;5.50;4.60;;;;;;;9.12;100.00;98627.45;109630;1250;60112;-82
2023/01/13 09:07:46;;;;;;;6.40;4.40;;;;;;;9.15;100.00;98627.08;109546;1251;64726;-82
2023/01/13 09:10:14;;;;;;;8.40;5.00;;;;;;;9.18;100.00;98624.55;109501;1251;58268;-82
2023/01/13 09:15:25;;;;;;;8.50;5.20;;;;;;;9.26;100.00;98630.10;109551;1251;65074;-82
2023/01/13 09:17:52;;;;;;;9.00;5.00;;;;;;;9.30;100.00;98622.23;109608;1250;59728;-82
2023/01/13 09:20:19;;;;;;;7.70;5.20;;;;;;;9.33;100.00;98616.66;109556;1251;64182;-82
2023/01/13 09:22:45;;;;;;;9.00;6.30;;;;;;;9.37;100.00;98611.80;109541;1251;58193;-84
2023/01/13 09:25:12;;;;;;;6.70;4.60;;;;;;;9.39;100.00;98614.99;109601;1251;58204;-81
2023/01/13 09:27:40;;;;;;;7.90;5.40;;;;;;;9.40;100.00;98614.95;109602;1251;65910;-82
2023/01/13 09:30:08;;;;;;;7.30;5.00;;;;;;;9.41;100.00;98614.56;109632;1251;60064;-82
2023/01/13 09:32:37;;;;;;;7.70;4.60;;;;;;;9.38;100.00;98615.59;109271;1251;63663;-81
2023/01/13 09:35:06;;;;;;;6.50;4.30;;;;;;;9.38;100.00;98612.30;109265;1251;58301;-82
2023/01/13 09:37:35;;;;;;;5.90;4.10;;;;;;;9.38;100.00;98615.62;109552;1251;58204;-83
2023/01/13 09:40:06;;;;;;;5.70;4.50;;;;;;;9.39;100.00;98613.57;109601;1251;65885;-83
2023/01/13 09:45:25;;;;;;;7.30;4.50;;;;;;;9.45;100.00;98614.95;109546;1251;65021;-82
2023/01/13 09:48:04;;;;;;;6.90;5.10;;;;;;;9.47;100.00;98611.45;109581;1251;58185;-83
2023/01/13 09:50:50;;;;;;;7.30;4.70;;;;;;;9.50;100.00;98605.08;109608;1251;58294;-83
2023/01/13 09:53:21;;;;;;;5.50;4.60;;;;;;;9.52;100.00;98602.96;109605;1251;66054;-83
2023/01/13 09:55:48;;;;;;;5.60;4.00;;;;;;;9.54;100.00;98599.67;109640;1251;60856;-83
2023/01/13 09:58:17;;;;;;;3.90;3.60;;;;;;;9.55;100.00;98594.92;109594;1251;63674;-82
2023/01/13 10:00:51;;;;;;;7.10;4.40;;;;;;;9.62;100.00;98591.09;109509;1251;58225;-83
2023/01/13 10:03:18;;;;;;;4.90;4.30;;;;;;;9.74;100.00;98591.17;109608;1251;58253;-82
2023/01/13 10:05:57;;;;;;;7.20;3.90;;;;;;;9.84;100.00;98586.69;109594;1251;65941;-82
2023/01/13 10:08:28;;;;;;;6.50;4.00;;;;;;;9.95;100.00;98587.06;109687;1251;61382;-82
2023/01/13 10:10:58;;;;;;;4.90;3.30;;;;;;;10.02;100.00;98585.77;109680;1251;63772;-81
2023/01/13 10:13:30;;;;;;;5.70;3.90;;;;;;;10.07;100.00;98587.23;109728;1251;58400;-83
2023/01/13 10:16:30;;;;;;;5.60;3.60;;;;;;;10.10;100.00;98585.23;109731;1251;58016;-82
2023/01/13 10:19:15;;;;;;;5.70;3.40;;;;;;;10.14;100.00;98582.47;109757;1251;64973;-83
2023/01/13 10:22:00;;;;;;;4.30;3.70;;;;;;;10.13;100.00;98578.12;109604;1250;59791;-82
2023/01/13 10:24:59;;;;;;;7.40;3.80;;;;;;;10.10;100.00;98581.30;109355;1256;63007;-82
2023/01/13 10:27:34;;;;;;;4.60;3.30;;;;;;;10.04;100.00;98576.23;109561;1251;58213;-80
2023/01/13 10:30:16;;;;;;;4.30;3.00;;;;;;;9.98;100.00;98568.55;109621;1251;58153;-81
2023/01/13 10:32:49;;;;;;;5.20;3.30;;;;;;;9.94;100.00;98563.48;109609;1251;66367;-74
2023/01/13 10:35:15;;;;;;;6.40;4.00;;;;;;;9.94;100.00;98567.20;109627;1251;60769;-73
2023/01/13 10:37:55;;;;;;;4.40;3.70;;;;;;;9.98;100.00;98564.65;109221;1251;64767;-73
2023/01/13 10:40:22;;;;;;;4.60;3.30;;;;;;;10.03;100.00;98559.77;109583;1251;58337;-74
2023/01/13 10:43:05;;;;;;;4.10;3.20;;;;;;;10.11;100.00;98560.34;109612;1251;58255;-73
2023/01/13 10:45:31;;;;;;;5.20;3.20;;;;;;;10.24;100.00;98549.84;109587;1251;64830;-72
2023/01/13 10:48:09;;;;;;;4.10;3.20;;;;;;;10.40;100.00;98549.18;109597;1250;61077;-72
2023/01/13 10:50:37;;;;;;;3.00;2.70;;;;;;;10.57;100.00;98543.45;109617;1251;63704;-73
2023/01/13 10:53:22;;;;;;;4.60;3.10;;;;;;;10.75;100.00;98541.09;109244;1251;58273;-74
2023/01/13 10:56:03;;;;;;;4.50;3.30;;;;;;;10.88;100.00;98535.52;109533;1251;59095;-73
2023/01/13 10:58:29;;;;;;;5.10;3.30;;;;;;;10.92;100.00;98533.38;109597;1251;65877;-73
2023/01/13 11:01:05;;;;;;;5.50;3.50;;;;;;;10.89;100.00;98531.14;109583;1251;61137;-73
2023/01/13 11:03:40;;;;;;;6.00;3.70;;;;;;;10.85;100.00;98533.95;109564;1251;63792;-74
2023/01/13 11:06:09;;;;;;;5.70;3.10;;;;;;;10.82;100.00;98531.55;109552;1251;58242;-73
2023/01/13 11:08:43;;;;;;;4.90;3.40;;;;;;;10.77;100.00;98530.99;109559;1255;58265;-73
2023/01/13 11:11:35;;;;;;;5.70;3.30;;;;;;;10.72;100.00;98532.55;109554;1251;65210;-73
2023/01/13 11:16:59;;;;;;;6.80;4.20;;;;;;;10.69;100.00;98528.92;109514;1251;63769;-73
2023/01/13 11:19:29;;;;;;;6.60;4.50;;;;;;;10.70;100.00;98523.28;109583;1251;58195;-73
2023/01/13 11:22:19;;;;;;;6.50;4.20;;;;;;;10.77;100.00;98515.30;109515;1251;58349;-73
2023/01/13 11:24:52;;;;;;;5.90;4.10;;;;;;;10.88;100.00;98514.48;109500;1251;64847;-73
2023/01/13 11:27:39;;;;;;;6.60;3.80;;;;;;;10.97;100.00;98511.70;109544;1251;60720;-73
2023/01/13 11:30:18;;;;;;;7.40;4.30;;;;;;;11.06;100.00;98505.02;109568;1251;63688;-73
2023/01/13 11:33:11;;;;;;;6.40;4.90;;;;;;;11.12;100.00;98503.24;109576;1251;58493;-73
2023/01/13 11:35:51;;;;;;;7.60;4.60;;;;;;;11.13;100.00;98506.73;108982;1259;58355;-73
2023/01/13 11:38:30;;;;;;;5.20;4.00;;;;;;;11.10;100.00;98503.10;108965;1259;64943;-73
2023/01/13 11:41:07;;;;;;;6.90;4.30;;;;;;;11.06;100.00;98503.55;108968;1259;59661;-74
2023/01/13 11:44:02;;;;;;;5.90;4.00;;;;;;;11.04;100.00;98507.13;108861;1258;65104;-74
2023/01/13 11:46:31;;;;;;;4.00;3.60;;;;;;;11.03;100.00;98499.02;108576;1265;58270;-74
2023/01/13 11:48:59;;;;;;;5.20;4.00;;;;;;;11.03;100.00;98495.23;108587;1265;58245;-74
2023/01/13 11:51:33;;;;;;;5.10;3.40;;;;;;;11.07;100.00;98496.04;108474;1265;64861;-73
2023/01/13 11:54:27;;;;;;;4.80;3.20;;;;;;;11.10;100.00;98497.40;108395;1265;59821;-74
2023/01/13 11:57:15;;;;;;;3.60;3.20;;;;;;;11.12;100.00;98500.39;108582;1265;65241;-73
2023/01/13 11:59:56;;;;;;;5.10;3.60;;;;;;;11.15;100.00;98499.64;108564;1265;58272;-73
2023/01/13 12:02:38;;;;;;;4.30;3.50;;;;;;;11.15;100.00;98498.60;108590;1265;58434;-73
2023/01/13 12:05:28;;;;;;;6.10;4.00;;;;;;;11.08;100.00;98501.77;108567;1265;66401;-73
2023/01/13 12:08:04;;;;;;;4.80;4.20;;;;;;;11.01;100.00;98500.58;108576;1265;60270;-73
2023/01/13 12:10:40;;;;;;;8.50;5.10;;;;;;;10.93;100.00;98498.10;108558;1265;63832;-72
2023/01/13 12:13:32;;;;;;;6.60;4.40;;;;;;;10.87;100.00;98497.39;108744;1259;58302;-73
2023/01/13 12:16:20;;;;;;;6.80;4.90;;;;;;;10.75;100.00;98495.97;108944;1259;58293;-73
2023/01/13 12:19:26;;;;;;;5.00;4.30;;;;;;;10.65;100.00;98490.52;108796;1259;195243;-73
2023/01/13 12:22:04;;;;;;;4.40;4.00;;;;;;;10.57;100.00;98493.23;108962;1259;60761;-73
2023/01/13 12:24:58;;;;;;;5.10;4.10;;;;;;;10.49;100.00;98497.16;109348;1252;64707;-73
2023/01/13 12:27:48;;;;;;;4.10;3.70;;;;;;;10.41;100.00;98497.25;109469;1253;58131;-73
2023/01/13 12:30:42;;;;;;;5.70;4.80;;;;;;;10.35;100.00;98498.40;109514;1252;58246;-73
2023/01/13 12:33:37;;;;;;;6.80;4.80;;;;;;;10.32;100.00;98496.48;109503;1253;65876;-74
2023/01/13 12:36:45;;;;;;;5.80;4.70;;;;;;;10.31;100.00;98492.63;109505;1253;59887;-74